createdAt,value
2022-11-16T00:01:30.492Z,99528.28
2022-11-16T00:03:59.301Z,99522.44
2022-11-16T00:06:27.390Z,99520.36
2022-11-16T00:09:15.339Z,99514.39
2022-11-16T00:11:42.177Z,99503.59
2022-11-16T00:14:09.102Z,99502.41
2022-11-16T00:16:35.800Z,99500.88
2022-11-16T00:19:04.413Z,99499.94
2022-11-16T00:21:32.586Z,99500.19
2022-11-16T00:23:59.481Z,99497.09
2022-11-16T00:26:26.791Z,99493.25
2022-11-16T00:28:54.176Z,99493.23
2022-11-16T00:31:21.718Z,99492.24
2022-11-16T00:33:49.883Z,99484.17
2022-11-16T00:36:16.753Z,99481.41
2022-11-16T00:38:43.494Z,99476.24
2022-11-16T00:41:13.285Z,99474.37
2022-11-16T00:43:40.270Z,99470.12
2022-11-16T00:46:08.628Z,99475.89
2022-11-16T00:48:36.231Z,99469.05
2022-11-16T00:51:03.472Z,99463.15
2022-11-16T00:53:30.283Z,99457.66
2022-11-16T00:55:57.173Z,99451.16
2022-11-16T00:58:24.812Z,99443.95
2022-11-16T01:01:07.459Z,99440.55
2022-11-16T01:03:35.523Z,99436.02
2022-11-16T01:06:04.978Z,99433.96
2022-11-16T01:08:32.498Z,99429.98
2022-11-16T01:11:20.447Z,99430.27
2022-11-16T01:13:48.189Z,99431.96
2022-11-16T01:16:17.052Z,99428.64
2022-11-16T01:18:47.850Z,99427.91
2022-11-16T01:21:14.697Z,99419.98
2022-11-16T01:23:41.537Z,99412.31
2022-11-16T01:26:08.365Z,99412.75
2022-11-16T01:28:36.531Z,99407.77
2022-11-16T01:31:03.792Z,99401.48
2022-11-16T01:33:33.522Z,99397.55
2022-11-16T01:36:00.448Z,99387.80
2022-11-16T01:38:29.977Z,99384.59
2022-11-16T01:40:57.806Z,99377.54
2022-11-16T01:43:27.323Z,99372.18
2022-11-16T01:46:00.510Z,99373.33
2022-11-16T01:48:29.866Z,99373.77
2022-11-16T01:50:58.584Z,99369.35
2022-11-16T01:53:25.737Z,99361.80
2022-11-16T01:55:55.692Z,99365.77
2022-11-16T01:58:31.026Z,99373.99
2022-11-16T02:01:10.859Z,99373.95
2022-11-16T02:03:49.589Z,99366.02
2022-11-16T02:06:31.725Z,99363.54
2022-11-16T02:09:53.046Z,99361.67
2022-11-16T02:12:49.258Z,99362.66
2022-11-16T02:15:30.771Z,99365.77
2022-11-16T02:18:20.533Z,99370.75
2022-11-16T02:21:02.273Z,99374.45
2022-11-16T02:23:50.239Z,99366.75
2022-11-16T02:26:28.372Z,99364.19
2022-11-16T02:29:30.375Z,99367.06
2022-11-16T02:32:04.140Z,99366.31
2022-11-16T02:34:40.185Z,99369.70
2022-11-16T02:37:11.322Z,99375.25
2022-11-16T02:39:39.479Z,99379.45
2022-11-16T02:42:13.775Z,99374.88
2022-11-16T02:44:46.013Z,99371.48
2022-11-16T02:47:20.388Z,99367.59
2022-11-16T02:49:53.831Z,99360.42
2022-11-16T02:52:23.041Z,99360.27
2022-11-16T02:54:49.929Z,99359.13
2022-11-16T02:57:41.639Z,99359.59
2022-11-16T03:00:47.779Z,99356.70
2022-11-16T03:03:30.066Z,99351.09
2022-11-16T03:06:08.140Z,99345.03
2022-11-16T03:08:51.680Z,99341.23
2022-11-16T03:11:37.272Z,99338.79
2022-11-16T03:14:18.214Z,99335.97
2022-11-16T03:16:55.341Z,99332.52
2022-11-16T03:19:29.477Z,99329.63
2022-11-16T03:22:03.080Z,99326.41
2022-11-16T03:24:31.029Z,99321.64
2022-11-16T03:27:06.862Z,99319.66
2022-11-16T03:30:04.172Z,99316.98
2022-11-16T03:32:58.869Z,99312.98
2022-11-16T03:35:41.431Z,99311.57
2022-11-16T03:38:10.764Z,99320.42
2022-11-16T03:40:41.189Z,99326.39
2022-11-16T03:43:08.779Z,99324.80
2022-11-16T03:45:36.564Z,99319.80
2022-11-16T03:48:06.452Z,99317.92
2022-11-16T03:50:33.742Z,99310.02
2022-11-16T03:53:01.150Z,99304.61
2022-11-16T03:55:27.898Z,99298.31
2022-11-16T03:57:55.285Z,99290.46
2022-11-16T04:00:22.007Z,99285.36
2022-11-16T04:02:50.125Z,99282.38
2022-11-16T04:05:38.421Z,99286.36
2022-11-16T04:08:24.145Z,99280.23
2022-11-16T04:11:09.711Z,99278.92
2022-11-16T04:13:55.562Z,99277.43
2022-11-16T04:16:41.147Z,99276.14
2022-11-16T04:19:27.563Z,99269.42
2022-11-16T04:22:31.245Z,99266.17
2022-11-16T04:25:07.526Z,99258.50
2022-11-16T04:27:54.390Z,99255.75
2022-11-16T04:30:21.226Z,99241.80
2022-11-16T04:33:07.114Z,99249.48
2022-11-16T04:35:53.940Z,99247.89
2022-11-16T04:38:20.724Z,99249.98
2022-11-16T04:40:47.511Z,99255.31
2022-11-16T04:43:14.374Z,99248.61
2022-11-16T04:46:01.393Z,99242.47
2022-11-16T04:48:34.565Z,99239.20
2022-11-16T04:51:02.106Z,99243.32
2022-11-16T04:53:28.914Z,99249.83
2022-11-16T04:56:02.462Z,99252.36
2022-11-16T04:58:29.557Z,99251.95
2022-11-16T05:00:56.576Z,99246.74
2022-11-16T05:03:23.304Z,99241.29
2022-11-16T05:05:50.227Z,99231.81
2022-11-16T05:08:17.492Z,99217.70
2022-11-16T05:10:45.001Z,99211.73
2022-11-16T05:13:11.772Z,99214.37
2022-11-16T05:15:38.561Z,99218.26
2022-11-16T05:18:05.269Z,99217.04
2022-11-16T05:20:51.723Z,99220.92
2022-11-16T05:23:37.118Z,99223.09
2022-11-16T05:26:08.027Z,99223.46
2022-11-16T05:28:34.965Z,99223.60
2022-11-16T05:31:02.536Z,99224.45
2022-11-16T05:33:30.460Z,99229.33
2022-11-16T05:35:57.740Z,99223.03
2022-11-16T05:38:24.528Z,99225.70
2022-11-16T05:40:54.037Z,99226.78
2022-11-16T05:43:20.928Z,99224.65
2022-11-16T05:45:56.634Z,99221.64
2022-11-16T05:48:23.532Z,99228.92
2022-11-16T05:50:50.522Z,99228.89
2022-11-16T05:53:24.025Z,99219.14
2022-11-16T05:55:51.348Z,99222.14
2022-11-16T05:58:18.531Z,99221.13
2022-11-16T06:00:46.367Z,99215.89
2022-11-16T06:03:13.576Z,99213.41
2022-11-16T06:05:41.268Z,99213.68
2022-11-16T06:08:09.253Z,99213.39
2022-11-16T06:10:36.513Z,99211.36
2022-11-16T06:13:03.366Z,99202.50
2022-11-16T06:15:30.542Z,99201.60
2022-11-16T06:17:57.849Z,99207.84
2022-11-16T06:20:24.948Z,99202.42
2022-11-16T06:22:52.654Z,99200.52
2022-11-16T06:25:19.485Z,99192.19
2022-11-16T06:27:46.557Z,99185.27
2022-11-16T06:30:15.849Z,99189.00
2022-11-16T06:32:44.145Z,99188.59
2022-11-16T06:35:10.880Z,99185.73
2022-11-16T06:37:38.199Z,99188.29
2022-11-16T06:40:05.858Z,99183.56
2022-11-16T06:42:35.009Z,99183.49
2022-11-16T06:45:01.904Z,99191.72
2022-11-16T06:47:31.903Z,99192.87
2022-11-16T06:49:58.770Z,99189.57
2022-11-16T06:52:25.798Z,99194.15
2022-11-16T06:54:52.506Z,99194.19
2022-11-16T06:57:19.259Z,99188.26
2022-11-16T06:59:46.275Z,99192.05
2022-11-16T07:02:13.243Z,99191.22
2022-11-16T07:04:40.332Z,99187.05
2022-11-16T07:07:07.188Z,99184.15
2022-11-16T07:09:34.363Z,99184.95
2022-11-16T07:12:01.270Z,99181.77
2022-11-16T07:14:29.549Z,99180.94
2022-11-16T07:17:00.345Z,99174.59
2022-11-16T07:19:28.843Z,99174.55
2022-11-16T07:21:56.080Z,99167.23
2022-11-16T07:24:23.249Z,99162.49
2022-11-16T07:26:49.968Z,99155.79
2022-11-16T07:29:18.857Z,99152.73
2022-11-16T07:32:02.978Z,99149.50
2022-11-16T07:34:48.297Z,99146.12
2022-11-16T07:37:16.884Z,99144.85
2022-11-16T07:39:45.044Z,99141.12
2022-11-16T07:42:12.904Z,99137.95
2022-11-16T07:45:01.062Z,99140.61
2022-11-16T07:47:27.721Z,99139.37
2022-11-16T07:49:54.520Z,99140.84
2022-11-16T07:52:24.828Z,99147.13
2022-11-16T07:55:01.208Z,99149.13
2022-11-16T07:57:29.300Z,99146.08
2022-11-16T07:59:58.366Z,99146.70
2022-11-16T08:02:25.435Z,99140.43
2022-11-16T08:04:52.225Z,99135.88
2022-11-16T08:07:23.019Z,99128.05
2022-11-16T08:09:52.943Z,99125.39
2022-11-16T08:12:20.651Z,99130.95
2022-11-16T08:14:47.597Z,99131.82
2022-11-16T08:17:15.157Z,99127.75
2022-11-16T08:19:43.211Z,99121.48
2022-11-16T08:22:12.519Z,99106.79
2022-11-16T08:24:39.679Z,99094.38
2022-11-16T08:27:06.419Z,99086.91
2022-11-16T08:29:33.381Z,99086.69
2022-11-16T08:32:01.008Z,99089.15
2022-11-16T08:34:27.755Z,99088.11
2022-11-16T08:36:58.081Z,99087.41
2022-11-16T08:39:30.048Z,99090.63
2022-11-16T08:41:57.910Z,99088.80
2022-11-16T08:44:24.696Z,99083.84
2022-11-16T08:46:53.362Z,99083.26
2022-11-16T08:49:28.676Z,99081.30
2022-11-16T08:51:55.707Z,99075.57
2022-11-16T08:54:22.528Z,99073.70
2022-11-16T08:56:49.444Z,99075.88
2022-11-16T08:59:17.184Z,99063.31
2022-11-16T09:01:49.463Z,99063.64
2022-11-16T09:04:18.098Z,99061.41
2022-11-16T09:06:45.445Z,99060.34
2022-11-16T09:09:13.446Z,99062.16
2022-11-16T09:11:40.723Z,99055.36
2022-11-16T09:14:08.341Z,99050.48
2022-11-16T09:16:35.089Z,99050.45
2022-11-16T09:19:01.846Z,99060.52
2022-11-16T09:21:29.737Z,99065.11
2022-11-16T09:23:57.690Z,99050.90
2022-11-16T09:26:25.726Z,99040.96
2022-11-16T09:28:55.209Z,99040.09
2022-11-16T09:31:23.808Z,99032.63
2022-11-16T09:33:51.130Z,99023.77
2022-11-16T09:36:18.048Z,99023.20
2022-11-16T09:39:17.745Z,99031.60
2022-11-16T09:41:35.454Z,99033.60
2022-11-16T09:44:07.668Z,99035.43
2022-11-16T09:46:40.720Z,99032.36
2022-11-16T09:49:22.197Z,99024.21
2022-11-16T09:51:54.694Z,99028.39
2022-11-16T09:54:26.988Z,99029.94
2022-11-16T09:56:58.716Z,99031.61
2022-11-16T09:59:40.585Z,99023.80
2022-11-16T10:02:21.540Z,99015.75
2022-11-16T10:04:57.946Z,99011.48
2022-11-16T10:07:41.075Z,99001.04
2022-11-16T10:10:16.751Z,98992.84
2022-11-16T10:13:21.012Z,98985.22
2022-11-16T10:16:09.706Z,98982.95
2022-11-16T10:18:53.529Z,98986.67
2022-11-16T10:21:20.215Z,98987.83
2022-11-16T10:24:19.490Z,98983.05
2022-11-16T10:27:12.267Z,98977.23
2022-11-16T10:29:39.096Z,98977.02
2022-11-16T10:32:27.533Z,98977.54
2022-11-16T10:34:54.412Z,98973.27
2022-11-16T10:37:23.920Z,98969.13
2022-11-16T10:39:52.761Z,98963.54
2022-11-16T10:42:26.264Z,98963.79
2022-11-16T10:44:59.782Z,98955.61
2022-11-16T10:47:42.190Z,98947.48
2022-11-16T10:50:33.385Z,98942.52
2022-11-16T10:53:00.885Z,98947.31
2022-11-16T10:55:30.577Z,98943.33
2022-11-16T10:58:01.746Z,98942.28
2022-11-16T11:00:40.810Z,98941.20
2022-11-16T11:03:10.271Z,98943.88
2022-11-16T11:05:47.636Z,98945.65
2022-11-16T11:08:25.429Z,98947.36
2022-11-16T11:11:25.051Z,98940.67
2022-11-16T11:14:03.525Z,98941.69
2022-11-16T11:16:32.136Z,98936.71
2022-11-16T11:19:17.473Z,98933.57
2022-11-16T11:21:44.613Z,98935.52
2022-11-16T11:24:43.268Z,98938.98
2022-11-16T11:27:03.662Z,98942.86
2022-11-16T11:29:35.206Z,98916.69
2022-11-16T11:32:07.598Z,98943.06
2022-11-16T11:34:46.834Z,98945.48
2022-11-16T11:37:21.120Z,98950.98
2022-11-16T11:39:47.929Z,98951.16
2022-11-16T11:42:14.666Z,98941.22
2022-11-16T11:44:52.129Z,98941.17
2022-11-16T11:50:26.565Z,98928.65
2022-11-16T11:53:04.931Z,98928.68
2022-11-16T11:55:31.710Z,98933.54
2022-11-16T11:58:01.217Z,98934.76
2022-11-16T12:00:52.952Z,98932.83
2022-11-16T12:03:38.333Z,98925.73
2022-11-16T12:06:28.294Z,98917.03
2022-11-16T12:09:07.030Z,98912.02
2022-11-16T12:12:14.790Z,98911.27
2022-11-16T12:15:07.181Z,98907.30
2022-11-16T12:17:59.076Z,98901.11
2022-11-16T12:21:07.024Z,98902.42
2022-11-16T12:23:51.712Z,98899.03
2022-11-16T12:26:38.222Z,98899.06
2022-11-16T12:29:10.551Z,98898.67
2022-11-16T12:31:49.357Z,98900.58
2022-11-16T12:34:34.863Z,98898.11
2022-11-16T12:37:35.616Z,98896.30
2022-11-16T12:40:37.181Z,98897.14
2022-11-16T12:43:16.820Z,98887.75
2022-11-16T12:46:26.099Z,98890.33
2022-11-16T12:49:01.794Z,98891.73
2022-11-16T12:51:43.480Z,98899.12
2022-11-16T12:54:57.666Z,98903.20
2022-11-16T12:57:46.358Z,98901.47
2022-11-16T13:00:18.507Z,98892.91
2022-11-16T13:03:06.486Z,98892.05
2022-11-16T13:05:41.921Z,98887.45
2022-11-16T13:08:16.165Z,98891.59
2022-11-16T13:10:45.641Z,98887.51
2022-11-16T13:13:35.917Z,98882.10
2022-11-16T13:16:06.830Z,98874.45
2022-11-16T13:18:38.235Z,98877.42
2022-11-16T13:21:11.343Z,98875.63
2022-11-16T13:23:58.587Z,98874.33
2022-11-16T13:26:35.950Z,98875.58
2022-11-16T13:29:33.695Z,98873.36
2022-11-16T13:32:46.744Z,98865.66
2022-11-16T13:35:16.331Z,98856.34
2022-11-16T13:37:46.176Z,98857.08
2022-11-16T13:40:28.660Z,98856.95
2022-11-16T13:43:04.718Z,98868.13
2022-11-16T13:45:57.271Z,98872.30
2022-11-16T13:48:32.810Z,98861.34
2022-11-16T13:51:16.336Z,98864.50
2022-11-16T13:54:43.204Z,98862.76
2022-11-16T13:56:50.455Z,98857.60
2022-11-16T13:59:29.833Z,98865.91
2022-11-16T14:02:01.395Z,98853.27
2022-11-16T14:05:00.745Z,98849.81
2022-11-16T14:07:33.681Z,98850.37
2022-11-16T14:10:01.717Z,98851.73
2022-11-16T14:12:43.038Z,98852.56
2022-11-16T14:15:24.003Z,98856.80
2022-11-16T14:18:23.155Z,98859.17
2022-11-16T14:20:54.393Z,98854.50
2022-11-16T14:26:51.074Z,98861.42
2022-11-16T14:29:30.200Z,98859.63
2022-11-16T14:32:02.669Z,98864.00
2022-11-16T14:34:31.836Z,98863.61
2022-11-16T14:37:03.067Z,98866.04
2022-11-16T14:39:36.988Z,98865.64
2022-11-16T14:42:14.470Z,98861.94
2022-11-16T14:44:43.168Z,98857.01
2022-11-16T14:47:28.365Z,98846.20
2022-11-16T14:49:55.993Z,98842.49
2022-11-16T14:52:36.079Z,98847.32
2022-11-16T14:55:07.067Z,98853.81
2022-11-16T14:57:34.859Z,98860.88
2022-11-16T15:00:09.657Z,98862.98
2022-11-16T15:02:37.523Z,98868.31
2022-11-16T15:05:04.936Z,98867.15
2022-11-16T15:10:17.645Z,98866.47
2022-11-16T15:12:50.960Z,98863.45
2022-11-16T15:15:30.134Z,98850.24
2022-11-16T15:17:59.531Z,98856.55
2022-11-16T15:20:29.077Z,98848.70
2022-11-16T15:23:00.560Z,98845.09
2022-11-16T15:25:41.099Z,98838.02
2022-11-16T15:28:26.318Z,98843.23
2022-11-16T15:30:54.346Z,98836.27
2022-11-16T15:33:30.801Z,98840.02
2022-11-16T15:35:58.130Z,98847.26
2022-11-16T15:38:31.785Z,98848.26
2022-11-16T15:41:00.883Z,98849.45
2022-11-16T15:43:35.841Z,98845.36
2022-11-16T15:46:07.454Z,98845.89
2022-11-16T15:48:37.827Z,98852.36
2022-11-16T15:51:13.099Z,98856.56
2022-11-16T15:53:44.321Z,98856.61
2022-11-16T15:56:30.211Z,98857.97
2022-11-16T15:59:11.093Z,98863.59
2022-11-16T16:01:44.667Z,98869.83
2022-11-16T16:04:18.144Z,98870.87
2022-11-16T16:06:53.710Z,98870.45
2022-11-16T16:09:32.643Z,98863.27
2022-11-16T16:12:29.547Z,98862.94
2022-11-16T16:15:25.034Z,98860.58
2022-11-16T16:17:53.669Z,98842.46
2022-11-16T16:20:23.490Z,98839.27
2022-11-16T16:22:51.270Z,98839.45
2022-11-16T16:25:26.982Z,98836.16
2022-11-16T16:27:53.781Z,98838.36
2022-11-16T16:30:20.792Z,98838.38
2022-11-16T16:32:51.697Z,98839.92
2022-11-16T16:35:23.634Z,98845.20
2022-11-16T16:37:57.488Z,98843.58
2022-11-16T16:40:26.996Z,98847.96
2022-11-16T16:42:58.849Z,98849.80
2022-11-16T16:45:35.839Z,98853.00
2022-11-16T16:48:02.953Z,98860.41
2022-11-16T16:50:29.732Z,98869.64
2022-11-16T16:52:57.641Z,98866.08
2022-11-16T16:55:24.618Z,98860.33
2022-11-16T16:57:54.950Z,98857.40
2022-11-16T17:00:22.116Z,98858.52
2022-11-16T17:02:48.865Z,98860.56
2022-11-16T17:05:16.015Z,98858.98
2022-11-16T17:07:42.834Z,98859.70
2022-11-16T17:10:09.520Z,98856.92
2022-11-16T17:12:36.990Z,98856.01
2022-11-16T17:15:04.068Z,98861.63
2022-11-16T17:17:31.577Z,98868.02
2022-11-16T17:20:00.000Z,98868.93
2022-11-16T17:22:27.276Z,98873.04
2022-11-16T17:24:55.403Z,98873.65
2022-11-16T17:30:05.036Z,98874.73
2022-11-16T17:32:31.863Z,98876.71
2022-11-16T17:35:00.143Z,98881.29
2022-11-16T17:37:35.380Z,98882.44
2022-11-16T17:40:03.814Z,98878.92
2022-11-16T17:42:34.741Z,98876.59
2022-11-16T17:45:02.787Z,98877.30
2022-11-16T17:47:32.125Z,98867.23
2022-11-16T17:49:59.534Z,98863.84
2022-11-16T17:52:26.411Z,98872.27
2022-11-16T17:54:53.202Z,98878.29
2022-11-16T17:57:20.171Z,98872.84
2022-11-16T17:59:47.388Z,98869.02
2022-11-16T18:02:14.108Z,98864.45
2022-11-16T18:04:41.006Z,98862.69
2022-11-16T18:07:07.943Z,98866.56
2022-11-16T18:09:34.684Z,98870.27
2022-11-16T18:12:01.405Z,98874.75
2022-11-16T18:14:28.132Z,98875.35
2022-11-16T18:16:54.910Z,98867.63
2022-11-16T18:19:21.718Z,98859.92
2022-11-16T18:21:48.609Z,98858.37
2022-11-16T18:24:15.416Z,98857.69
2022-11-16T18:26:42.285Z,98856.05
2022-11-16T18:29:18.023Z,98845.83
2022-11-16T18:31:44.941Z,98840.98
2022-11-16T18:34:13.767Z,98839.45
2022-11-16T18:36:40.591Z,98843.06
2022-11-16T18:39:07.773Z,98841.49
2022-11-16T18:41:35.193Z,98842.70
2022-11-16T18:44:02.429Z,98839.83
2022-11-16T18:46:31.660Z,98840.63
2022-11-16T18:48:59.076Z,98842.88
2022-11-16T18:51:26.980Z,98844.02
2022-11-16T18:53:54.647Z,98840.72
2022-11-16T18:56:21.452Z,98832.98
2022-11-16T18:58:51.314Z,98835.63
2022-11-16T19:01:23.563Z,98832.30
2022-11-16T19:03:51.795Z,98828.58
2022-11-16T19:06:18.848Z,98821.38
2022-11-16T19:08:50.482Z,98815.41
2022-11-16T19:11:21.388Z,98815.40
2022-11-16T19:13:52.715Z,98818.98
2022-11-16T19:16:19.502Z,98816.83
2022-11-16T19:18:46.982Z,98817.52
2022-11-16T19:21:17.838Z,98817.33
2022-11-16T19:23:50.893Z,98805.69
2022-11-16T19:26:19.763Z,98816.37
2022-11-16T19:28:48.096Z,98816.37
2022-11-16T19:31:17.937Z,98812.41
2022-11-16T19:33:45.068Z,98815.25
2022-11-16T19:36:14.331Z,98817.28
2022-11-16T19:38:41.748Z,98821.98
2022-11-16T19:41:10.762Z,98819.23
2022-11-16T19:43:38.508Z,98821.91
2022-11-16T19:46:11.218Z,98826.11
2022-11-16T19:48:38.815Z,98830.80
2022-11-16T19:51:07.962Z,98827.37
2022-11-16T19:53:35.573Z,98826.21
2022-11-16T19:56:04.176Z,98830.17
2022-11-16T19:58:32.384Z,98830.38
2022-11-16T20:01:05.774Z,98823.89
2022-11-16T20:03:33.370Z,98820.23
2022-11-16T20:06:09.283Z,98819.34
2022-11-16T20:08:37.390Z,98815.05
2022-11-16T20:11:12.314Z,98809.25
2022-11-16T20:13:41.394Z,98803.64
2022-11-16T20:16:10.459Z,98802.59
2022-11-16T20:18:39.318Z,98792.47
2022-11-16T20:21:07.676Z,98798.90
2022-11-16T20:23:35.047Z,98793.86
2022-11-16T20:26:06.563Z,98793.71
2022-11-16T20:28:35.482Z,98793.45
2022-11-16T20:31:06.438Z,98792.15
2022-11-16T20:33:34.254Z,98793.20
2022-11-16T20:36:07.323Z,98788.64
2022-11-16T20:38:35.409Z,98786.17
2022-11-16T20:41:14.652Z,98790.06
2022-11-16T20:43:42.981Z,98784.54
2022-11-16T20:46:14.379Z,98785.25
2022-11-16T20:48:42.688Z,98781.38
2022-11-16T20:51:12.159Z,98779.45
2022-11-16T20:53:39.053Z,98778.18
2022-11-16T20:56:07.140Z,98782.77
2022-11-16T20:58:34.461Z,98783.31
2022-11-16T21:01:07.590Z,98778.98
2022-11-16T21:03:34.884Z,98775.55
2022-11-16T21:06:01.973Z,98776.06
2022-11-16T21:08:29.512Z,98773.16
2022-11-16T21:10:56.321Z,98771.70
2022-11-16T21:13:42.091Z,98767.59
2022-11-16T21:16:11.276Z,98764.57
2022-11-16T21:18:41.768Z,98764.52
2022-11-16T21:21:12.097Z,98769.48
2022-11-16T21:23:42.513Z,98772.42
2022-11-16T21:26:14.537Z,98773.55
2022-11-16T21:28:44.138Z,98773.10
2022-11-16T21:31:13.546Z,98768.86
2022-11-16T21:33:40.592Z,98764.03
2022-11-16T21:36:10.930Z,98768.55
2022-11-16T21:38:38.300Z,98764.98
2022-11-16T21:41:06.067Z,98764.36
2022-11-16T21:43:35.700Z,98761.52
2022-11-16T21:46:06.328Z,98764.14
2022-11-16T21:48:34.342Z,98761.76
2022-11-16T21:51:09.397Z,98762.39
2022-11-16T21:53:36.506Z,98760.84
2022-11-16T21:56:05.001Z,98756.65
2022-11-16T21:58:31.784Z,98749.83
2022-11-16T22:01:00.370Z,98748.81
2022-11-16T22:03:29.381Z,98751.11
2022-11-16T22:06:18.000Z,98748.77
2022-11-16T22:08:46.347Z,98748.77
2022-11-16T22:11:14.626Z,98749.84
2022-11-16T22:13:42.092Z,98755.95
2022-11-16T22:16:11.392Z,98757.04
2022-11-16T22:18:38.590Z,98761.58
2022-11-16T22:21:06.260Z,98763.98
2022-11-16T22:23:33.676Z,98764.42
2022-11-16T22:26:09.392Z,98773.79
2022-11-16T22:28:37.028Z,98770.52
2022-11-16T22:31:10.114Z,98765.30
2022-11-16T22:33:37.768Z,98770.41
2022-11-16T22:36:07.404Z,98771.92
2022-11-16T22:38:34.611Z,98763.70
2022-11-16T22:41:01.341Z,98761.55
2022-11-16T22:43:29.905Z,98766.93
2022-11-16T22:46:01.902Z,98769.68
2022-11-16T22:48:36.680Z,98768.59
2022-11-16T22:51:05.168Z,98776.14
2022-11-16T22:53:32.365Z,98786.66
2022-11-16T22:56:07.358Z,98786.52
2022-11-16T22:58:38.529Z,98778.55
2022-11-16T23:01:07.568Z,98780.59
2022-11-16T23:03:35.920Z,98779.05
2022-11-16T23:06:04.555Z,98766.40
2022-11-16T23:08:32.111Z,98761.37
2022-11-16T23:11:29.176Z,98767.59
2022-11-16T23:14:15.366Z,98762.69
2022-11-16T23:16:42.997Z,98756.56
2022-11-16T23:19:30.825Z,98754.42
2022-11-16T23:22:16.954Z,98743.92
2022-11-16T23:25:02.835Z,98730.45
2022-11-16T23:28:01.249Z,98719.62
2022-11-16T23:30:28.090Z,98715.80
2022-11-16T23:32:54.797Z,98715.55
2022-11-16T23:35:22.084Z,98711.93
2022-11-16T23:37:55.901Z,98711.29
2022-11-16T23:40:26.037Z,98711.13
2022-11-16T23:43:13.730Z,98702.25
2022-11-16T23:45:42.026Z,98699.95
2022-11-16T23:48:10.824Z,98704.58
2022-11-16T23:50:37.734Z,98692.64
2022-11-16T23:53:05.889Z,98686.04
2022-11-16T23:55:33.560Z,98686.23
2022-11-16T23:58:00.314Z,98685.30
